sensor_id;sensor_type;location;lat;lon;timestamp;temperature;humidity
25554;DHT22;13446;50.926;5.332;2022-08-05T00:00:34;21.60;99.90
25554;DHT22;13446;50.926;5.332;2022-08-05T00:02:59;21.60;99.90
25554;DHT22;13446;50.926;5.332;2022-08-05T00:05:25;21.70;99.90
25554;DHT22;13446;50.926;5.332;2022-08-05T00:07:51;21.60;99.90
25554;DHT22;13446;50.926;5.332;2022-08-05T00:10:17;21.70;99.90
25554;DHT22;13446;50.926;5.332;2022-08-05T00:12:42;21.80;99.90
25554;DHT22;13446;50.926;5.332;2022-08-05T00:15:09;21.60;99.90
25554;DHT22;13446;50.926;5.332;2022-08-05T00:17:35;21.60;99.90
25554;DHT22;13446;50.926;5.332;2022-08-05T00:20:01;21.60;99.90
25554;DHT22;13446;50.926;5.332;2022-08-05T00:22:27;21.50;99.90
25554;DHT22;13446;50.926;5.332;2022-08-05T00:24:52;21.40;99.90
25554;DHT22;13446;50.926;5.332;2022-08-05T00:27:18;21.30;99.90
25554;DHT22;13446;50.926;5.332;2022-08-05T00:29:44;21.10;99.90
25554;DHT22;13446;50.926;5.332;2022-08-05T00:32:09;21.00;99.90
25554;DHT22;13446;50.926;5.332;2022-08-05T00:34:41;20.90;99.90
25554;DHT22;13446;50.926;5.332;2022-08-05T00:37:08;20.90;99.90
25554;DHT22;13446;50.926;5.332;2022-08-05T00:39:34;20.80;99.90
25554;DHT22;13446;50.926;5.332;2022-08-05T00:42:00;20.50;99.90
25554;DHT22;13446;50.926;5.332;2022-08-05T00:44:25;20.50;99.90
25554;DHT22;13446;50.926;5.332;2022-08-05T00:46:51;20.70;99.90
25554;DHT22;13446;50.926;5.332;2022-08-05T00:49:17;20.90;99.90
25554;DHT22;13446;50.926;5.332;2022-08-05T00:51:45;20.80;99.90
25554;DHT22;13446;50.926;5.332;2022-08-05T00:54:11;20.80;99.90
25554;DHT22;13446;50.926;5.332;2022-08-05T00:56:38;20.80;99.90
25554;DHT22;13446;50.926;5.332;2022-08-05T00:59:04;20.60;99.90
25554;DHT22;13446;50.926;5.332;2022-08-05T01:01:30;20.70;99.90
25554;DHT22;13446;50.926;5.332;2022-08-05T01:03:57;20.90;99.90
25554;DHT22;13446;50.926;5.332;2022-08-05T01:06:24;21.10;99.90
25554;DHT22;13446;50.926;5.332;2022-08-05T01:08:51;21.30;99.90
25554;DHT22;13446;50.926;5.332;2022-08-05T01:11:23;21.40;99.90
25554;DHT22;13446;50.926;5.332;2022-08-05T01:13:56;21.50;99.90
25554;DHT22;13446;50.926;5.332;2022-08-05T01:16:51;21.60;99.90
25554;DHT22;13446;50.926;5.332;2022-08-05T01:22:06;21.60;99.90
25554;DHT22;13446;50.926;5.332;2022-08-05T01:30:02;21.50;99.90
25554;DHT22;13446;50.926;5.332;2022-08-05T01:32:32;21.20;99.90
25554;DHT22;13446;50.926;5.332;2022-08-05T01:35:05;21.00;99.90
25554;DHT22;13446;50.926;5.332;2022-08-05T01:37:43;20.80;99.90
25554;DHT22;13446;50.926;5.332;2022-08-05T01:40:10;20.70;99.90
25554;DHT22;13446;50.926;5.332;2022-08-05T01:42:38;20.70;99.90
25554;DHT22;13446;50.926;5.332;2022-08-05T01:45:06;20.60;99.90
25554;DHT22;13446;50.926;5.332;2022-08-05T01:47:34;20.50;99.90
25554;DHT22;13446;50.926;5.332;2022-08-05T01:50:03;20.50;99.90
25554;DHT22;13446;50.926;5.332;2022-08-05T01:52:31;20.20;99.90
25554;DHT22;13446;50.926;5.332;2022-08-05T01:55:02;20.30;99.90
25554;DHT22;13446;50.926;5.332;2022-08-05T01:57:39;20.40;99.90
25554;DHT22;13446;50.926;5.332;2022-08-05T02:00:07;20.50;99.90
25554;DHT22;13446;50.926;5.332;2022-08-05T02:02:40;20.60;99.90
25554;DHT22;13446;50.926;5.332;2022-08-05T02:05:09;20.70;99.90
25554;DHT22;13446;50.926;5.332;2022-08-05T02:07:35;20.70;99.90
25554;DHT22;13446;50.926;5.332;2022-08-05T02:10:03;20.70;99.90
25554;DHT22;13446;50.926;5.332;2022-08-05T02:12:42;20.70;99.90
25554;DHT22;13446;50.926;5.332;2022-08-05T02:15:23;20.60;99.90
25554;DHT22;13446;50.926;5.332;2022-08-05T02:20:32;20.10;99.90
25554;DHT22;13446;50.926;5.332;2022-08-05T02:23:06;19.90;99.90
25554;DHT22;13446;50.926;5.332;2022-08-05T02:25:34;20.00;99.90
25554;DHT22;13446;50.926;5.332;2022-08-05T02:28:02;20.20;99.90
25554;DHT22;13446;50.926;5.332;2022-08-05T02:30:34;20.00;99.90
25554;DHT22;13446;50.926;5.332;2022-08-05T02:33:02;20.10;99.90
25554;DHT22;13446;50.926;5.332;2022-08-05T02:35:31;20.10;99.90
25554;DHT22;13446;50.926;5.332;2022-08-05T02:37:58;19.90;99.90
25554;DHT22;13446;50.926;5.332;2022-08-05T02:40:25;19.90;99.90
25554;DHT22;13446;50.926;5.332;2022-08-05T02:42:52;19.80;99.90
25554;DHT22;13446;50.926;5.332;2022-08-05T02:45:19;20.00;99.90
25554;DHT22;13446;50.926;5.332;2022-08-05T02:47:45;20.20;99.90
25554;DHT22;13446;50.926;5.332;2022-08-05T02:50:13;20.40;99.90
25554;DHT22;13446;50.926;5.332;2022-08-05T02:52:40;20.40;99.90
25554;DHT22;13446;50.926;5.332;2022-08-05T02:55:07;20.30;99.90
25554;DHT22;13446;50.926;5.332;2022-08-05T02:57:34;20.40;99.90
25554;DHT22;13446;50.926;5.332;2022-08-05T03:00:03;20.30;99.90
25554;DHT22;13446;50.926;5.332;2022-08-05T03:02:33;20.10;99.90
25554;DHT22;13446;50.926;5.332;2022-08-05T03:05:01;20.10;99.90
25554;DHT22;13446;50.926;5.332;2022-08-05T03:07:28;20.30;99.90
25554;DHT22;13446;50.926;5.332;2022-08-05T03:09:54;20.40;99.90
25554;DHT22;13446;50.926;5.332;2022-08-05T03:12:35;20.40;99.90
25554;DHT22;13446;50.926;5.332;2022-08-05T03:15:02;20.80;99.90
25554;DHT22;13446;50.926;5.332;2022-08-05T03:17:28;20.40;99.90
25554;DHT22;13446;50.926;5.332;2022-08-05T03:19:54;20.60;99.90
25554;DHT22;13446;50.926;5.332;2022-08-05T03:22:20;20.80;99.90
25554;DHT22;13446;50.926;5.332;2022-08-05T03:24:47;20.80;99.90
25554;DHT22;13446;50.926;5.332;2022-08-05T03:27:13;20.90;99.90
25554;DHT22;13446;50.926;5.332;2022-08-05T03:29:40;20.90;99.90
25554;DHT22;13446;50.926;5.332;2022-08-05T03:32:07;20.90;99.90
25554;DHT22;13446;50.926;5.332;2022-08-05T03:34:33;20.90;99.90
25554;DHT22;13446;50.926;5.332;2022-08-05T03:37:00;20.90;99.90
25554;DHT22;13446;50.926;5.332;2022-08-05T03:39:27;20.80;99.90
25554;DHT22;13446;50.926;5.332;2022-08-05T03:41:53;20.80;99.90
25554;DHT22;13446;50.926;5.332;2022-08-05T03:44:19;20.80;99.90
25554;DHT22;13446;50.926;5.332;2022-08-05T03:46:45;20.70;99.90
25554;DHT22;13446;50.926;5.332;2022-08-05T03:49:11;20.70;99.90
25554;DHT22;13446;50.926;5.332;2022-08-05T03:52:00;20.60;99.90
25554;DHT22;13446;50.926;5.332;2022-08-05T03:54:34;20.60;99.90
25554;DHT22;13446;50.926;5.332;2022-08-05T03:57:03;20.70;99.90
25554;DHT22;13446;50.926;5.332;2022-08-05T03:59:36;20.90;99.90
25554;DHT22;13446;50.926;5.332;2022-08-05T04:02:05;21.00;99.90
25554;DHT22;13446;50.926;5.332;2022-08-05T04:04:32;21.00;99.90
25554;DHT22;13446;50.926;5.332;2022-08-05T04:06:59;21.00;99.90
25554;DHT22;13446;50.926;5.332;2022-08-05T04:09:28;21.00;99.90
25554;DHT22;13446;50.926;5.332;2022-08-05T04:11:54;21.00;99.90
25554;DHT22;13446;50.926;5.332;2022-08-05T04:14:20;20.90;99.90
25554;DHT22;13446;50.926;5.332;2022-08-05T04:16:46;21.00;99.90
25554;DHT22;13446;50.926;5.332;2022-08-05T04:19:12;21.00;99.90
25554;DHT22;13446;50.926;5.332;2022-08-05T04:21:39;20.60;99.90
25554;DHT22;13446;50.926;5.332;2022-08-05T04:24:05;20.70;99.90
25554;DHT22;13446;50.926;5.332;2022-08-05T04:26:31;20.60;99.90
25554;DHT22;13446;50.926;5.332;2022-08-05T04:28:56;20.70;99.90
25554;DHT22;13446;50.926;5.332;2022-08-05T04:31:22;20.80;99.90
25554;DHT22;13446;50.926;5.332;2022-08-05T04:33:48;20.80;99.90
25554;DHT22;13446;50.926;5.332;2022-08-05T04:36:14;20.80;99.90
25554;DHT22;13446;50.926;5.332;2022-08-05T04:38:43;20.70;99.90
25554;DHT22;13446;50.926;5.332;2022-08-05T04:41:09;20.90;99.90
25554;DHT22;13446;50.926;5.332;2022-08-05T04:43:36;20.90;99.90
25554;DHT22;13446;50.926;5.332;2022-08-05T04:46:01;20.80;99.90
25554;DHT22;13446;50.926;5.332;2022-08-05T04:48:28;20.80;99.90
25554;DHT22;13446;50.926;5.332;2022-08-05T04:50:55;20.80;99.90
25554;DHT22;13446;50.926;5.332;2022-08-05T04:53:21;20.80;99.90
25554;DHT22;13446;50.926;5.332;2022-08-05T04:55:47;20.90;99.90
25554;DHT22;13446;50.926;5.332;2022-08-05T04:58:14;20.90;99.90
25554;DHT22;13446;50.926;5.332;2022-08-05T05:00:41;20.80;99.90
25554;DHT22;13446;50.926;5.332;2022-08-05T05:03:09;20.80;99.90
25554;DHT22;13446;50.926;5.332;2022-08-05T05:05:35;20.80;99.90
25554;DHT22;13446;50.926;5.332;2022-08-05T05:08:06;20.80;99.90
25554;DHT22;13446;50.926;5.332;2022-08-05T05:10:37;20.80;99.90
25554;DHT22;13446;50.926;5.332;2022-08-05T05:13:03;20.70;99.90
25554;DHT22;13446;50.926;5.332;2022-08-05T05:15:29;20.70;99.90
25554;DHT22;13446;50.926;5.332;2022-08-05T05:17:55;20.70;99.90
25554;DHT22;13446;50.926;5.332;2022-08-05T05:20:20;20.60;99.90
25554;DHT22;13446;50.926;5.332;2022-08-05T05:22:46;20.70;99.90
25554;DHT22;13446;50.926;5.332;2022-08-05T05:25:13;20.70;99.90
25554;DHT22;13446;50.926;5.332;2022-08-05T05:27:39;20.60;99.90
25554;DHT22;13446;50.926;5.332;2022-08-05T05:30:05;20.70;99.90
25554;DHT22;13446;50.926;5.332;2022-08-05T05:32:31;20.70;99.90
25554;DHT22;13446;50.926;5.332;2022-08-05T05:34:57;20.70;99.90
25554;DHT22;13446;50.926;5.332;2022-08-05T05:37:22;20.70;99.90
25554;DHT22;13446;50.926;5.332;2022-08-05T05:39:49;20.70;99.90
25554;DHT22;13446;50.926;5.332;2022-08-05T05:42:14;20.70;99.90
25554;DHT22;13446;50.926;5.332;2022-08-05T05:44:40;20.70;99.90
25554;DHT22;13446;50.926;5.332;2022-08-05T05:47:06;20.80;99.90
25554;DHT22;13446;50.926;5.332;2022-08-05T05:49:31;20.80;99.90
25554;DHT22;13446;50.926;5.332;2022-08-05T05:51:57;20.80;99.90
25554;DHT22;13446;50.926;5.332;2022-08-05T05:54:23;20.70;99.90
25554;DHT22;13446;50.926;5.332;2022-08-05T05:56:48;20.60;99.90
25554;DHT22;13446;50.926;5.332;2022-08-05T05:59:14;20.50;99.90
25554;DHT22;13446;50.926;5.332;2022-08-05T06:01:41;20.60;99.90
25554;DHT22;13446;50.926;5.332;2022-08-05T06:04:11;20.60;99.90
25554;DHT22;13446;50.926;5.332;2022-08-05T06:06:39;20.60;99.90
25554;DHT22;13446;50.926;5.332;2022-08-05T06:09:06;20.40;99.90
25554;DHT22;13446;50.926;5.332;2022-08-05T06:11:32;20.50;99.90
25554;DHT22;13446;50.926;5.332;2022-08-05T06:13:58;20.60;99.90
25554;DHT22;13446;50.926;5.332;2022-08-05T06:16:24;20.60;99.90
25554;DHT22;13446;50.926;5.332;2022-08-05T06:18:50;20.60;99.90
25554;DHT22;13446;50.926;5.332;2022-08-05T06:21:16;20.40;99.90
25554;DHT22;13446;50.926;5.332;2022-08-05T06:23:41;20.50;99.90
25554;DHT22;13446;50.926;5.332;2022-08-05T06:26:07;20.60;99.90
25554;DHT22;13446;50.926;5.332;2022-08-05T06:28:35;20.60;99.90
25554;DHT22;13446;50.926;5.332;2022-08-05T06:31:01;20.60;99.90
25554;DHT22;13446;50.926;5.332;2022-08-05T06:33:27;20.60;99.90
25554;DHT22;13446;50.926;5.332;2022-08-05T06:35:53;20.30;99.90
25554;DHT22;13446;50.926;5.332;2022-08-05T06:38:19;20.10;99.90
25554;DHT22;13446;50.926;5.332;2022-08-05T06:40:44;20.20;99.90
25554;DHT22;13446;50.926;5.332;2022-08-05T06:43:11;20.30;99.90
25554;DHT22;13446;50.926;5.332;2022-08-05T06:45:37;20.30;99.90
25554;DHT22;13446;50.926;5.332;2022-08-05T06:48:02;20.40;99.90
25554;DHT22;13446;50.926;5.332;2022-08-05T06:50:28;20.40;99.90
25554;DHT22;13446;50.926;5.332;2022-08-05T06:52:54;20.50;99.90
25554;DHT22;13446;50.926;5.332;2022-08-05T06:55:19;20.60;99.90
25554;DHT22;13446;50.926;5.332;2022-08-05T06:57:46;20.70;99.90
25554;DHT22;13446;50.926;5.332;2022-08-05T07:00:13;20.60;99.90
25554;DHT22;13446;50.926;5.332;2022-08-05T07:02:46;20.50;99.90
25554;DHT22;13446;50.926;5.332;2022-08-05T07:05:12;20.70;99.90
25554;DHT22;13446;50.926;5.332;2022-08-05T07:07:39;20.60;99.90
25554;DHT22;13446;50.926;5.332;2022-08-05T07:10:06;20.50;99.90
25554;DHT22;13446;50.926;5.332;2022-08-05T07:12:32;20.40;99.90
25554;DHT22;13446;50.926;5.332;2022-08-05T07:15:16;20.70;99.90
25554;DHT22;13446;50.926;5.332;2022-08-05T07:18:00;20.90;99.90
25554;DHT22;13446;50.926;5.332;2022-08-05T07:20:26;21.00;99.90
25554;DHT22;13446;50.926;5.332;2022-08-05T07:22:52;21.10;99.90
25554;DHT22;13446;50.926;5.332;2022-08-05T07:25:17;21.20;99.90
25554;DHT22;13446;50.926;5.332;2022-08-05T07:27:43;21.30;99.90
25554;DHT22;13446;50.926;5.332;2022-08-05T07:30:09;21.20;99.90
25554;DHT22;13446;50.926;5.332;2022-08-05T07:32:36;21.00;99.90
25554;DHT22;13446;50.926;5.332;2022-08-05T07:35:09;20.90;99.90
25554;DHT22;13446;50.926;5.332;2022-08-05T07:37:37;21.20;99.90
25554;DHT22;13446;50.926;5.332;2022-08-05T07:40:08;21.30;99.90
25554;DHT22;13446;50.926;5.332;2022-08-05T07:42:34;21.40;99.90
25554;DHT22;13446;50.926;5.332;2022-08-05T07:45:00;21.70;99.90
25554;DHT22;13446;50.926;5.332;2022-08-05T07:47:25;21.90;99.90
25554;DHT22;13446;50.926;5.332;2022-08-05T07:49:51;22.20;99.90
25554;DHT22;13446;50.926;5.332;2022-08-05T07:52:18;22.60;99.90
25554;DHT22;13446;50.926;5.332;2022-08-05T07:54:44;22.70;99.90
25554;DHT22;13446;50.926;5.332;2022-08-05T07:57:11;22.70;99.90
25554;DHT22;13446;50.926;5.332;2022-08-05T07:59:36;22.70;99.90
25554;DHT22;13446;50.926;5.332;2022-08-05T08:02:02;22.70;99.90
25554;DHT22;13446;50.926;5.332;2022-08-05T08:04:28;22.60;99.90
25554;DHT22;13446;50.926;5.332;2022-08-05T08:06:54;22.90;99.90
25554;DHT22;13446;50.926;5.332;2022-08-05T08:09:21;23.30;99.90
25554;DHT22;13446;50.926;5.332;2022-08-05T08:11:48;23.70;99.90
25554;DHT22;13446;50.926;5.332;2022-08-05T08:14:14;23.90;99.90
25554;DHT22;13446;50.926;5.332;2022-08-05T08:16:39;24.10;99.90
25554;DHT22;13446;50.926;5.332;2022-08-05T08:19:06;24.20;99.90
25554;DHT22;13446;50.926;5.332;2022-08-05T08:21:33;24.20;99.90
25554;DHT22;13446;50.926;5.332;2022-08-05T08:23:58;23.90;99.90
25554;DHT22;13446;50.926;5.332;2022-08-05T08:26:24;24.10;99.90
25554;DHT22;13446;50.926;5.332;2022-08-05T08:28:50;24.70;99.90
25554;DHT22;13446;50.926;5.332;2022-08-05T08:31:16;25.40;99.90
25554;DHT22;13446;50.926;5.332;2022-08-05T08:33:43;26.00;99.90
25554;DHT22;13446;50.926;5.332;2022-08-05T08:36:08;26.60;99.90
25554;DHT22;13446;50.926;5.332;2022-08-05T08:38:34;26.90;99.90
25554;DHT22;13446;50.926;5.332;2022-08-05T08:41:04;26.80;99.90
25554;DHT22;13446;50.926;5.332;2022-08-05T08:43:32;27.30;99.90
25554;DHT22;13446;50.926;5.332;2022-08-05T08:46:00;27.70;99.90
25554;DHT22;13446;50.926;5.332;2022-08-05T08:48:29;28.10;99.90
25554;DHT22;13446;50.926;5.332;2022-08-05T08:50:56;28.40;99.90
25554;DHT22;13446;50.926;5.332;2022-08-05T08:53:23;28.50;99.90
25554;DHT22;13446;50.926;5.332;2022-08-05T08:55:49;28.30;99.90
25554;DHT22;13446;50.926;5.332;2022-08-05T08:58:15;28.20;99.90
25554;DHT22;13446;50.926;5.332;2022-08-05T09:00:41;28.00;99.90
25554;DHT22;13446;50.926;5.332;2022-08-05T09:03:09;27.80;99.90
25554;DHT22;13446;50.926;5.332;2022-08-05T09:05:38;27.80;99.90
25554;DHT22;13446;50.926;5.332;2022-08-05T09:08:04;28.00;99.90
25554;DHT22;13446;50.926;5.332;2022-08-05T09:10:30;27.80;99.90
25554;DHT22;13446;50.926;5.332;2022-08-05T09:12:56;26.90;99.90
25554;DHT22;13446;50.926;5.332;2022-08-05T09:15:24;26.80;99.90
25554;DHT22;13446;50.926;5.332;2022-08-05T09:17:50;27.20;99.90
25554;DHT22;13446;50.926;5.332;2022-08-05T09:20:15;27.70;99.90
25554;DHT22;13446;50.926;5.332;2022-08-05T09:23:13;27.90;99.90
25554;DHT22;13446;50.926;5.332;2022-08-05T09:25:41;29.30;99.10
25554;DHT22;13446;50.926;5.332;2022-08-05T09:28:13;30.70;97.40
25554;DHT22;13446;50.926;5.332;2022-08-05T09:30:52;31.10;96.00
25554;DHT22;13446;50.926;5.332;2022-08-05T09:33:20;31.20;93.10
25554;DHT22;13446;50.926;5.332;2022-08-05T09:36:04;30.90;91.90
25554;DHT22;13446;50.926;5.332;2022-08-05T09:38:31;30.60;92.90
25554;DHT22;13446;50.926;5.332;2022-08-05T09:41:06;30.10;93.80
25554;DHT22;13446;50.926;5.332;2022-08-05T09:43:34;29.50;95.10
25554;DHT22;13446;50.926;5.332;2022-08-05T09:46:01;29.00;97.20
25554;DHT22;13446;50.926;5.332;2022-08-05T09:48:34;29.40;96.20
25554;DHT22;13446;50.926;5.332;2022-08-05T09:51:07;31.10;94.50
25554;DHT22;13446;50.926;5.332;2022-08-05T09:53:50;33.10;85.10
25554;DHT22;13446;50.926;5.332;2022-08-05T09:56:33;33.70;78.70
25554;DHT22;13446;50.926;5.332;2022-08-05T09:59:04;34.00;75.10
25554;DHT22;13446;50.926;5.332;2022-08-05T10:01:31;32.80;76.80
25554;DHT22;13446;50.926;5.332;2022-08-05T10:06:29;31.30;78.60
25554;DHT22;13446;50.926;5.332;2022-08-05T10:09:15;30.70;82.40
25554;DHT22;13446;50.926;5.332;2022-08-05T10:11:42;30.50;85.70
25554;DHT22;13446;50.926;5.332;2022-08-05T10:16:47;32.00;86.80
25554;DHT22;13446;50.926;5.332;2022-08-05T10:19:14;33.90;73.90
25554;DHT22;13446;50.926;5.332;2022-08-05T10:21:41;35.40;67.30
25554;DHT22;13446;50.926;5.332;2022-08-05T10:24:08;36.80;59.70
25554;DHT22;13446;50.926;5.332;2022-08-05T10:26:39;37.30;54.90
25554;DHT22;13446;50.926;5.332;2022-08-05T10:29:06;37.10;54.90
25554;DHT22;13446;50.926;5.332;2022-08-05T10:31:32;35.70;55.30
25554;DHT22;13446;50.926;5.332;2022-08-05T10:33:58;34.80;57.90
25554;DHT22;13446;50.926;5.332;2022-08-05T10:36:24;34.30;56.90
25554;DHT22;13446;50.926;5.332;2022-08-05T10:38:52;33.00;62.10
25554;DHT22;13446;50.926;5.332;2022-08-05T10:41:31;32.20;63.50
25554;DHT22;13446;50.926;5.332;2022-08-05T10:44:07;33.40;60.40
25554;DHT22;13446;50.926;5.332;2022-08-05T10:49:12;36.50;53.60
25554;DHT22;13446;50.926;5.332;2022-08-05T10:51:44;37.30;51.60
25554;DHT22;13446;50.926;5.332;2022-08-05T10:54:11;38.10;50.10
25554;DHT22;13446;50.926;5.332;2022-08-05T10:59:10;39.10;47.00
25554;DHT22;13446;50.926;5.332;2022-08-05T11:01:41;37.80;47.90
25554;DHT22;13446;50.926;5.332;2022-08-05T11:04:16;36.00;50.00
25554;DHT22;13446;50.926;5.332;2022-08-05T11:09:28;32.80;55.20
25554;DHT22;13446;50.926;5.332;2022-08-05T11:12:00;31.70;58.10
25554;DHT22;13446;50.926;5.332;2022-08-05T11:14:29;30.90;60.00
25554;DHT22;13446;50.926;5.332;2022-08-05T11:19:57;29.30;68.30
25554;DHT22;13446;50.926;5.332;2022-08-05T11:22:48;28.80;69.70
25554;DHT22;13446;50.926;5.332;2022-08-05T11:25:38;28.60;67.50
25554;DHT22;13446;50.926;5.332;2022-08-05T11:35:54;28.70;78.30
25554;DHT22;13446;50.926;5.332;2022-08-05T11:41:21;29.80;74.70
25554;DHT22;13446;50.926;5.332;2022-08-05T11:44:09;30.60;72.10
25554;DHT22;13446;50.926;5.332;2022-08-05T11:46:52;32.90;61.60
25554;DHT22;13446;50.926;5.332;2022-08-05T11:49:19;33.20;59.80
25554;DHT22;13446;50.926;5.332;2022-08-05T11:51:49;32.50;60.00
25554;DHT22;13446;50.926;5.332;2022-08-05T11:54:29;32.50;58.80
25554;DHT22;13446;50.926;5.332;2022-08-05T11:56:58;33.40;60.10
25554;DHT22;13446;50.926;5.332;2022-08-05T11:59:27;33.00;57.10
25554;DHT22;13446;50.926;5.332;2022-08-05T12:02:02;32.20;54.70
25554;DHT22;13446;50.926;5.332;2022-08-05T12:04:44;31.10;56.10
25554;DHT22;13446;50.926;5.332;2022-08-05T12:07:12;30.40;55.20
25554;DHT22;13446;50.926;5.332;2022-08-05T12:09:40;29.60;56.60
25554;DHT22;13446;50.926;5.332;2022-08-05T12:12:06;29.70;57.50
25554;DHT22;13446;50.926;5.332;2022-08-05T12:14:51;30.30;56.40
25554;DHT22;13446;50.926;5.332;2022-08-05T12:17:16;30.40;56.80
25554;DHT22;13446;50.926;5.332;2022-08-05T12:19:45;30.70;57.40
25554;DHT22;13446;50.926;5.332;2022-08-05T12:22:12;31.60;57.10
25554;DHT22;13446;50.926;5.332;2022-08-05T12:24:48;33.20;53.90
25554;DHT22;13446;50.926;5.332;2022-08-05T12:27:27;34.60;50.50
25554;DHT22;13446;50.926;5.332;2022-08-05T12:32:32;34.70;50.60
25554;DHT22;13446;50.926;5.332;2022-08-05T12:35:00;33.00;48.90
25554;DHT22;13446;50.926;5.332;2022-08-05T12:37:26;31.70;51.10
25554;DHT22;13446;50.926;5.332;2022-08-05T12:39:52;32.90;51.90
25554;DHT22;13446;50.926;5.332;2022-08-05T12:42:19;33.10;49.40
25554;DHT22;13446;50.926;5.332;2022-08-05T12:44:45;33.50;49.50
25554;DHT22;13446;50.926;5.332;2022-08-05T12:47:12;34.40;49.50
25554;DHT22;13446;50.926;5.332;2022-08-05T12:49:46;34.30;46.40
25554;DHT22;13446;50.926;5.332;2022-08-05T12:52:17;33.80;47.10
25554;DHT22;13446;50.926;5.332;2022-08-05T12:54:45;34.20;46.10
25554;DHT22;13446;50.926;5.332;2022-08-05T12:57:13;34.90;46.50
25554;DHT22;13446;50.926;5.332;2022-08-05T12:59:52;35.10;44.30
25554;DHT22;13446;50.926;5.332;2022-08-05T13:02:29;34.10;45.30
25554;DHT22;13446;50.926;5.332;2022-08-05T13:04:54;32.80;46.60
25554;DHT22;13446;50.926;5.332;2022-08-05T13:07:23;32.70;48.30
25554;DHT22;13446;50.926;5.332;2022-08-05T13:09:55;32.80;46.00
25554;DHT22;13446;50.926;5.332;2022-08-05T13:12:22;32.20;47.10
25554;DHT22;13446;50.926;5.332;2022-08-05T13:14:57;31.60;48.70
25554;DHT22;13446;50.926;5.332;2022-08-05T13:17:30;31.80;47.30
25554;DHT22;13446;50.926;5.332;2022-08-05T13:20:10;32.40;47.40
25554;DHT22;13446;50.926;5.332;2022-08-05T13:22:41;32.20;47.70
25554;DHT22;13446;50.926;5.332;2022-08-05T13:25:12;31.90;46.90
25554;DHT22;13446;50.926;5.332;2022-08-05T13:30:14;30.80;49.60
25554;DHT22;13446;50.926;5.332;2022-08-05T13:32:40;30.00;50.50
25554;DHT22;13446;50.926;5.332;2022-08-05T13:35:06;29.70;51.40
25554;DHT22;13446;50.926;5.332;2022-08-05T13:37:34;29.60;52.40
25554;DHT22;13446;50.926;5.332;2022-08-05T13:40:00;29.80;51.70
25554;DHT22;13446;50.926;5.332;2022-08-05T13:42:26;29.90;52.50
25554;DHT22;13446;50.926;5.332;2022-08-05T13:44:52;30.30;51.20
25554;DHT22;13446;50.926;5.332;2022-08-05T13:47:18;30.30;50.70
25554;DHT22;13446;50.926;5.332;2022-08-05T13:49:44;30.40;51.40
25554;DHT22;13446;50.926;5.332;2022-08-05T13:54:37;30.00;51.60
25554;DHT22;13446;50.926;5.332;2022-08-05T13:57:02;30.00;51.60
25554;DHT22;13446;50.926;5.332;2022-08-05T13:59:28;29.90;51.50
25554;DHT22;13446;50.926;5.332;2022-08-05T14:01:55;29.80;51.50
25554;DHT22;13446;50.926;5.332;2022-08-05T14:04:20;29.80;51.60
25554;DHT22;13446;50.926;5.332;2022-08-05T14:07:05;29.80;51.40
25554;DHT22;13446;50.926;5.332;2022-08-05T14:09:30;29.80;51.40
25554;DHT22;13446;50.926;5.332;2022-08-05T14:11:58;29.90;51.10
25554;DHT22;13446;50.926;5.332;2022-08-05T14:14:23;29.80;50.80
25554;DHT22;13446;50.926;5.332;2022-08-05T14:16:49;29.60;50.70
25554;DHT22;13446;50.926;5.332;2022-08-05T14:19:15;29.20;50.70
25554;DHT22;13446;50.926;5.332;2022-08-05T14:21:41;29.00;50.50
25554;DHT22;13446;50.926;5.332;2022-08-05T14:24:07;28.60;51.40
25554;DHT22;13446;50.926;5.332;2022-08-05T14:26:36;28.60;51.90
25554;DHT22;13446;50.926;5.332;2022-08-05T14:29:02;28.70;51.60
25554;DHT22;13446;50.926;5.332;2022-08-05T14:31:28;28.90;50.90
25554;DHT22;13446;50.926;5.332;2022-08-05T14:33:54;28.90;49.90
25554;DHT22;13446;50.926;5.332;2022-08-05T14:36:19;28.80;49.30
25554;DHT22;13446;50.926;5.332;2022-08-05T14:38:45;28.70;49.50
25554;DHT22;13446;50.926;5.332;2022-08-05T14:41:11;28.70;49.60
25554;DHT22;13446;50.926;5.332;2022-08-05T14:43:37;29.00;49.20
25554;DHT22;13446;50.926;5.332;2022-08-05T14:46:02;29.20;49.20
25554;DHT22;13446;50.926;5.332;2022-08-05T14:48:28;29.00;48.70
25554;DHT22;13446;50.926;5.332;2022-08-05T14:50:54;28.90;48.30
25554;DHT22;13446;50.926;5.332;2022-08-05T14:53:19;28.80;48.80
25554;DHT22;13446;50.926;5.332;2022-08-05T14:55:45;28.80;48.50
25554;DHT22;13446;50.926;5.332;2022-08-05T14:58:11;28.90;49.20
25554;DHT22;13446;50.926;5.332;2022-08-05T15:00:37;28.60;48.10
25554;DHT22;13446;50.926;5.332;2022-08-05T15:03:04;28.70;48.50
25554;DHT22;13446;50.926;5.332;2022-08-05T15:05:33;28.70;49.10
25554;DHT22;13446;50.926;5.332;2022-08-05T15:08:00;28.90;48.50
25554;DHT22;13446;50.926;5.332;2022-08-05T15:10:27;28.90;47.70
25554;DHT22;13446;50.926;5.332;2022-08-05T15:12:53;28.70;48.60
25554;DHT22;13446;50.926;5.332;2022-08-05T15:15:18;28.50;49.70
25554;DHT22;13446;50.926;5.332;2022-08-05T15:17:44;28.00;49.60
25554;DHT22;13446;50.926;5.332;2022-08-05T15:20:10;27.80;49.90
25554;DHT22;13446;50.926;5.332;2022-08-05T15:22:39;27.70;50.00
25554;DHT22;13446;50.926;5.332;2022-08-05T15:25:06;27.50;51.00
25554;DHT22;13446;50.926;5.332;2022-08-05T15:27:32;27.30;50.40
25554;DHT22;13446;50.926;5.332;2022-08-05T15:29:58;27.00;50.90
25554;DHT22;13446;50.926;5.332;2022-08-05T15:32:24;26.80;51.40
25554;DHT22;13446;50.926;5.332;2022-08-05T15:34:50;26.80;52.30
25554;DHT22;13446;50.926;5.332;2022-08-05T15:37:16;26.70;51.30
25554;DHT22;13446;50.926;5.332;2022-08-05T15:39:42;26.70;51.70
25554;DHT22;13446;50.926;5.332;2022-08-05T15:42:08;26.80;51.40
25554;DHT22;13446;50.926;5.332;2022-08-05T15:44:39;26.80;52.90
25554;DHT22;13446;50.926;5.332;2022-08-05T15:47:08;26.70;51.60
25554;DHT22;13446;50.926;5.332;2022-08-05T15:49:34;26.70;51.60
25554;DHT22;13446;50.926;5.332;2022-08-05T15:52:00;26.80;51.00
25554;DHT22;13446;50.926;5.332;2022-08-05T15:54:26;26.80;50.60
25554;DHT22;13446;50.926;5.332;2022-08-05T15:56:52;26.80;49.50
25554;DHT22;13446;50.926;5.332;2022-08-05T15:59:17;26.70;50.00
25554;DHT22;13446;50.926;5.332;2022-08-05T16:01:43;26.70;51.00
25554;DHT22;13446;50.926;5.332;2022-08-05T16:04:09;26.70;51.10
25554;DHT22;13446;50.926;5.332;2022-08-05T16:06:35;26.80;50.60
25554;DHT22;13446;50.926;5.332;2022-08-05T16:09:02;26.60;50.50
25554;DHT22;13446;50.926;5.332;2022-08-05T16:11:28;26.70;50.60
25554;DHT22;13446;50.926;5.332;2022-08-05T16:13:55;26.40;49.50
25554;DHT22;13446;50.926;5.332;2022-08-05T16:16:21;26.20;49.50
25554;DHT22;13446;50.926;5.332;2022-08-05T16:18:47;26.10;51.20
25554;DHT22;13446;50.926;5.332;2022-08-05T16:21:13;26.30;50.70